createdAt,value
2023-03-05T00:00:19.079Z,14.32
2023-03-05T00:02:45.675Z,16.38
2023-03-05T00:05:12.417Z,12.88
2023-03-05T00:07:39.004Z,14.20
2023-03-05T00:10:06.565Z,12.45
2023-03-05T00:12:33.210Z,14.60
2023-03-05T00:15:00.800Z,12.35
2023-03-05T00:17:27.476Z,11.63
2023-03-05T00:19:54.386Z,11.93
2023-03-05T00:22:21.132Z,12.95
2023-03-05T00:24:51.274Z,11.75
2023-03-05T00:27:18.040Z,12.15
2023-03-05T00:29:44.588Z,14.23
2023-03-05T00:32:11.172Z,11.18
2023-03-05T00:34:37.873Z,12.25
2023-03-05T00:37:09.973Z,17.70
2023-03-05T00:39:36.670Z,17.00
2023-03-05T00:42:03.419Z,16.70
2023-03-05T00:44:31.981Z,14.05
2023-03-05T00:46:58.801Z,14.18
2023-03-05T00:49:25.836Z,12.18
2023-03-05T00:54:19.792Z,13.27
2023-03-05T00:59:14.359Z,15.55
2023-03-05T01:01:41.061Z,18.17
2023-03-05T01:04:07.884Z,18.15
2023-03-05T01:06:34.504Z,12.13
2023-03-05T01:09:01.020Z,12.52
2023-03-05T01:11:27.652Z,18.08
2023-03-05T01:13:54.252Z,14.05
2023-03-05T01:16:23.322Z,18.60
2023-03-05T01:21:17.037Z,13.93
2023-03-05T01:23:43.607Z,15.40
2023-03-05T01:26:10.318Z,15.15
2023-03-05T01:28:38.394Z,18.45
2023-03-05T01:31:08.569Z,18.77
2023-03-05T01:33:35.312Z,17.05
2023-03-05T01:36:05.072Z,17.83
2023-03-05T01:38:31.736Z,20.52
2023-03-05T01:40:58.407Z,19.25
2023-03-05T01:46:23.815Z,16.55
2023-03-05T01:48:54.763Z,17.13
2023-03-05T01:51:25.488Z,19.77
2023-03-05T01:56:20.481Z,15.55
2023-03-05T02:01:13.982Z,14.98
2023-03-05T02:03:41.718Z,14.18
2023-03-05T02:06:08.614Z,12.93
2023-03-05T02:08:35.144Z,14.73
2023-03-05T02:11:02.178Z,14.35
2023-03-05T02:13:32.863Z,13.40
2023-03-05T02:16:02.871Z,12.68
2023-03-05T02:18:29.712Z,12.65
2023-03-05T02:20:56.443Z,12.32
2023-03-05T02:23:26.384Z,11.32
2023-03-05T02:28:43.730Z,11.65
2023-03-05T02:31:13.944Z,10.90
2023-03-05T02:33:40.525Z,11.43
2023-03-05T02:36:10.797Z,10.40
2023-03-05T02:38:38.031Z,10.30
2023-03-05T02:41:04.828Z,11.02
2023-03-05T02:43:31.697Z,10.05
2023-03-05T02:45:58.366Z,10.38
2023-03-05T02:48:25.022Z,10.57
2023-03-05T02:50:52.044Z,10.05
2023-03-05T02:53:18.837Z,9.88
2023-03-05T02:55:49.897Z,9.57
2023-03-05T02:58:17.021Z,9.43
2023-03-05T03:00:43.683Z,8.75
2023-03-05T03:03:10.196Z,11.48
2023-03-05T03:05:37.149Z,9.02
2023-03-05T03:08:04.031Z,9.07
2023-03-05T03:10:31.236Z,8.65
2023-03-05T03:12:57.745Z,8.43
2023-03-05T03:15:24.490Z,8.52
2023-03-05T03:20:18.362Z,7.47
2023-03-05T03:25:21.106Z,6.90
2023-03-05T03:27:47.775Z,6.78
2023-03-05T03:30:15.674Z,7.00
2023-03-05T03:32:43.066Z,6.90
2023-03-05T03:35:11.157Z,6.85
2023-03-05T03:37:37.714Z,6.78
2023-03-05T03:40:06.073Z,6.63
2023-03-05T03:42:33.826Z,7.40
2023-03-05T03:45:02.251Z,7.32
2023-03-05T03:47:30.059Z,7.82
2023-03-05T03:49:56.748Z,7.63
2023-03-05T03:52:23.257Z,7.15
2023-03-05T03:57:18.923Z,7.80
2023-03-05T03:59:46.076Z,7.70
2023-03-05T04:02:13.131Z,8.48
2023-03-05T04:04:39.839Z,8.65
2023-03-05T04:07:06.473Z,7.93
2023-03-05T04:11:59.694Z,8.60
2023-03-05T04:14:27.217Z,8.00
2023-03-05T04:16:54.224Z,8.90
2023-03-05T04:19:21.236Z,9.88
2023-03-05T04:24:14.310Z,10.25
2023-03-05T04:26:40.824Z,9.30
2023-03-05T04:29:07.325Z,9.32
2023-03-05T04:31:33.893Z,9.98
2023-03-05T04:34:00.491Z,9.68
2023-03-05T04:36:27.488Z,11.93
2023-03-05T04:41:25.464Z,10.15
2023-03-05T04:43:51.929Z,10.70
2023-03-05T04:46:18.398Z,11.13
2023-03-05T04:48:44.799Z,11.60
2023-03-05T04:51:11.349Z,11.85
2023-03-05T04:53:37.894Z,12.07
2023-03-05T04:56:04.811Z,11.82
2023-03-05T04:58:34.692Z,11.65
2023-03-05T05:01:02.770Z,12.10
2023-03-05T05:03:29.597Z,11.55
2023-03-05T05:05:57.555Z,13.43
2023-03-05T05:08:24.942Z,11.80
2023-03-05T05:11:03.709Z,11.68
2023-03-05T05:13:31.025Z,12.73
2023-03-05T05:15:57.972Z,12.30
2023-03-05T05:18:25.285Z,11.80
2023-03-05T05:23:18.742Z,11.80
2023-03-05T05:25:45.654Z,13.20
2023-03-05T05:28:12.979Z,12.57
2023-03-05T05:30:39.573Z,13.27
2023-03-05T05:33:06.024Z,12.60
2023-03-05T05:35:32.583Z,13.35
2023-03-05T05:37:59.090Z,12.00
2023-03-05T05:40:25.534Z,11.98
2023-03-05T05:42:52.060Z,11.73
2023-03-05T05:45:18.740Z,12.80
2023-03-05T05:47:45.280Z,11.98
2023-03-05T05:50:12.486Z,11.43
2023-03-05T05:52:38.940Z,12.50
2023-03-05T05:55:06.137Z,11.98
2023-03-05T05:57:32.644Z,12.25
2023-03-05T05:59:59.115Z,11.75
2023-03-05T06:02:27.606Z,12.18
2023-03-05T06:04:54.130Z,13.20
2023-03-05T06:07:20.709Z,12.00
2023-03-05T06:12:14.897Z,12.18
2023-03-05T06:14:41.336Z,12.25
2023-03-05T06:17:07.733Z,11.30
2023-03-05T06:19:34.624Z,11.20
2023-03-05T06:22:01.068Z,11.95
2023-03-05T06:24:27.534Z,12.15
2023-03-05T06:29:20.296Z,10.65
2023-03-05T06:34:13.145Z,11.05
2023-03-05T06:36:40.430Z,11.65
2023-03-05T06:39:07.383Z,11.65
2023-03-05T06:41:33.813Z,10.57
2023-03-05T06:44:04.956Z,10.70
2023-03-05T06:49:06.958Z,11.18
2023-03-05T06:54:07.907Z,11.30
2023-03-05T06:56:39.030Z,10.55
2023-03-05T06:59:06.653Z,11.57
2023-03-05T07:01:33.568Z,11.15
2023-03-05T07:04:00.515Z,12.63
2023-03-05T07:06:27.781Z,12.48
2023-03-05T07:08:59.034Z,12.43
2023-03-05T07:13:52.155Z,11.68
2023-03-05T07:16:22.022Z,12.88
2023-03-05T07:21:18.649Z,13.15
2023-03-05T07:23:45.432Z,13.25
2023-03-05T07:26:12.591Z,12.38
2023-03-05T07:28:39.301Z,12.68
2023-03-05T07:31:09.169Z,12.52
2023-03-05T07:36:04.965Z,12.07
2023-03-05T07:38:32.178Z,11.60
2023-03-05T07:41:09.872Z,12.23
2023-03-05T07:46:11.925Z,10.20
2023-03-05T07:48:38.755Z,11.23
2023-03-05T07:51:08.586Z,10.75
2023-03-05T07:56:01.686Z,10.65
2023-03-05T07:58:28.203Z,10.65
2023-03-05T08:03:21.655Z,8.73
2023-03-05T08:08:14.675Z,7.82
2023-03-05T08:10:41.271Z,8.48
2023-03-05T08:13:07.771Z,8.13
2023-03-05T08:18:01.821Z,8.63
2023-03-05T08:20:28.474Z,8.05
2023-03-05T08:22:55.001Z,8.40
2023-03-05T08:25:22.025Z,8.60
2023-03-05T08:27:49.226Z,7.90
2023-03-05T08:30:20.372Z,8.35
2023-03-05T08:32:49.471Z,8.27
2023-03-05T08:35:16.049Z,8.05
2023-03-05T08:37:42.589Z,7.03
2023-03-05T08:40:10.978Z,6.97
2023-03-05T08:42:37.531Z,6.45
2023-03-05T08:45:04.235Z,5.57
2023-03-05T08:47:30.724Z,6.07
2023-03-05T08:49:58.394Z,5.82
2023-03-05T08:52:27.305Z,5.78
2023-03-05T08:54:54.014Z,5.13
2023-03-05T08:57:20.824Z,5.32
2023-03-05T08:59:47.541Z,5.88
2023-03-05T09:02:14.277Z,5.72
2023-03-05T09:04:40.951Z,5.60
2023-03-05T09:07:08.109Z,4.90
2023-03-05T09:09:35.291Z,5.00
2023-03-05T09:12:02.345Z,4.68
2023-03-05T09:14:29.575Z,4.38
2023-03-05T09:16:57.346Z,3.90
2023-03-05T09:19:27.741Z,3.47
2023-03-05T09:24:21.019Z,3.15
2023-03-05T09:29:14.100Z,3.25
2023-03-05T09:31:40.675Z,2.95
2023-03-05T09:34:08.209Z,3.05
2023-03-05T09:39:01.474Z,2.45
2023-03-05T09:44:46.514Z,2.63
2023-03-05T09:47:18.890Z,2.42
2023-03-05T09:50:14.299Z,2.47
2023-03-05T09:55:26.027Z,2.45
2023-03-05T10:00:37.737Z,2.30
2023-03-05T10:03:11.229Z,2.10
2023-03-05T10:08:24.910Z,2.13
2023-03-05T10:10:54.003Z,2.20
2023-03-05T10:13:30.814Z,1.90
2023-03-05T10:16:10.870Z,2.00
2023-03-05T10:18:57.368Z,2.20
2023-03-05T10:21:32.658Z,1.80
2023-03-05T10:24:04.919Z,1.75
2023-03-05T10:26:45.013Z,1.90
2023-03-05T10:29:32.977Z,1.90
2023-03-05T10:34:40.859Z,1.65
2023-03-05T10:37:27.206Z,1.80
2023-03-05T10:40:01.722Z,2.10
2023-03-05T10:42:35.602Z,1.70
2023-03-05T10:48:23.900Z,2.00
2023-03-05T10:50:57.888Z,1.77
2023-03-05T10:56:22.951Z,1.88
2023-03-05T11:01:26.658Z,2.00
2023-03-05T11:04:03.485Z,2.00
2023-03-05T11:06:42.262Z,1.70
2023-03-05T11:09:19.617Z,2.05
2023-03-05T11:12:08.535Z,1.50
2023-03-05T11:14:38.748Z,1.77
2023-03-05T11:17:35.980Z,2.05
2023-03-05T11:20:27.410Z,2.28
2023-03-05T11:23:12.436Z,2.20
2023-03-05T11:26:16.433Z,1.70
2023-03-05T11:31:18.636Z,1.50
2023-03-05T11:34:04.392Z,1.45
2023-03-05T11:36:35.604Z,1.42
2023-03-05T11:41:52.509Z,1.70
2023-03-05T11:44:23.388Z,1.70
2023-03-05T11:49:28.187Z,2.00
2023-03-05T11:52:11.697Z,1.60
2023-03-05T11:55:04.410Z,1.60
2023-03-05T11:57:47.219Z,1.48
2023-03-05T12:00:18.845Z,1.20
2023-03-05T12:02:50.388Z,1.40
2023-03-05T12:05:17.723Z,1.00
2023-03-05T12:10:22.387Z,1.20
2023-03-05T12:16:39.144Z,1.10
2023-03-05T12:19:30.738Z,1.20
2023-03-05T12:21:57.962Z,1.20
2023-03-05T12:24:27.888Z,1.27
2023-03-05T12:27:04.290Z,1.10
2023-03-05T12:29:49.362Z,0.98
2023-03-05T12:32:21.995Z,1.10
2023-03-05T12:35:00.111Z,1.63
2023-03-05T12:37:27.420Z,1.40
2023-03-05T12:40:08.489Z,1.20
2023-03-05T12:42:35.497Z,1.40
2023-03-05T12:45:16.017Z,1.75
2023-03-05T12:47:47.344Z,1.50
2023-03-05T12:50:29.286Z,1.75
2023-03-05T12:53:04.624Z,1.42
2023-03-05T12:55:55.896Z,1.80
2023-03-05T12:58:37.980Z,1.50
2023-03-05T13:01:22.694Z,1.20
2023-03-05T13:04:00.182Z,1.23
2023-03-05T13:06:26.955Z,1.10
2023-03-05T13:09:01.314Z,1.45
2023-03-05T13:14:42.155Z,1.40
2023-03-05T13:17:30.520Z,1.10
2023-03-05T13:19:58.606Z,1.60
2023-03-05T13:22:28.544Z,1.10
2023-03-05T13:25:16.613Z,1.42
2023-03-05T13:27:43.992Z,1.27
2023-03-05T13:30:26.268Z,1.15
2023-03-05T13:32:57.890Z,1.83
2023-03-05T13:35:24.520Z,1.42
2023-03-05T13:37:51.277Z,1.55
2023-03-05T13:40:26.552Z,1.40
2023-03-05T13:42:54.523Z,1.55
2023-03-05T13:45:30.530Z,1.50
2023-03-05T13:47:58.492Z,1.55
2023-03-05T13:50:39.982Z,1.52
2023-03-05T13:53:30.686Z,1.67
2023-03-05T13:56:08.947Z,1.70
2023-03-05T14:04:13.815Z,2.03
2023-03-05T14:09:25.126Z,2.13
2023-03-05T14:14:25.267Z,2.17
2023-03-05T14:19:45.190Z,1.90
2023-03-05T14:22:41.669Z,1.92
2023-03-05T14:25:33.798Z,1.77
2023-03-05T14:28:14.374Z,1.90
2023-03-05T14:33:14.822Z,1.90
2023-03-05T14:35:48.781Z,1.65
2023-03-05T14:38:23.707Z,1.80
2023-03-05T14:43:20.775Z,2.10
2023-03-05T14:45:47.998Z,2.30
2023-03-05T14:48:17.496Z,2.08
2023-03-05T14:50:56.265Z,2.35
2023-03-05T14:53:29.562Z,2.90
2023-03-05T14:55:57.011Z,3.67
2023-03-05T14:58:26.282Z,2.40
2023-03-05T15:03:21.697Z,3.40
2023-03-05T15:08:29.056Z,2.78
2023-03-05T15:10:55.879Z,2.80
2023-03-05T15:13:22.505Z,2.65
2023-03-05T15:18:19.694Z,2.88
2023-03-05T15:23:20.368Z,2.75
2023-03-05T15:28:14.070Z,2.53
2023-03-05T15:30:44.217Z,3.40
2023-03-05T15:33:13.825Z,2.50
2023-03-05T15:35:41.127Z,2.58
2023-03-05T15:38:08.129Z,2.65
2023-03-05T15:40:34.684Z,2.38
2023-03-05T15:43:01.507Z,2.85
2023-03-05T15:45:31.162Z,2.40
2023-03-05T15:50:24.035Z,2.90
2023-03-05T15:55:18.296Z,2.83
2023-03-05T16:00:26.465Z,3.20
2023-03-05T16:05:19.702Z,2.47
2023-03-05T16:07:50.328Z,2.60
2023-03-05T16:10:22.453Z,2.45
2023-03-05T16:12:52.762Z,2.53
2023-03-05T16:15:21.561Z,3.10
2023-03-05T16:20:19.557Z,2.85
2023-03-05T16:22:46.442Z,3.42
2023-03-05T16:25:13.042Z,3.47
2023-03-05T16:27:39.469Z,2.80
2023-03-05T16:30:06.891Z,2.85
2023-03-05T16:32:33.511Z,3.15
2023-03-05T16:35:00.096Z,2.97
2023-03-05T16:37:26.579Z,3.40
2023-03-05T16:39:52.995Z,3.00
2023-03-05T16:42:19.534Z,3.15
2023-03-05T16:44:47.356Z,2.90
2023-03-05T16:47:13.984Z,3.03
2023-03-05T16:49:41.150Z,3.00
2023-03-05T16:52:18.806Z,2.67
2023-03-05T16:54:46.502Z,3.08
2023-03-05T16:57:12.996Z,3.17
2023-03-05T16:59:39.510Z,2.75
2023-03-05T17:02:06.275Z,3.10
2023-03-05T17:04:32.797Z,3.08
2023-03-05T17:09:25.757Z,3.50
2023-03-05T17:11:53.524Z,3.60
2023-03-05T17:14:20.899Z,3.67
2023-03-05T17:16:47.665Z,4.00
2023-03-05T17:19:14.848Z,3.97
2023-03-05T17:21:42.552Z,4.30
2023-03-05T17:24:09.957Z,5.72
2023-03-05T17:26:36.837Z,4.53
2023-03-05T17:29:05.045Z,3.97
2023-03-05T17:31:31.725Z,3.97
2023-03-05T17:36:25.677Z,5.03
2023-03-05T17:38:52.932Z,3.72
2023-03-05T17:41:19.697Z,3.67
2023-03-05T17:43:46.979Z,3.85
2023-03-05T17:46:14.400Z,4.07
2023-03-05T17:48:44.110Z,3.88
2023-03-05T17:51:13.573Z,3.92
2023-03-05T17:53:40.656Z,4.43
2023-03-05T17:56:10.838Z,3.88
2023-03-05T17:58:37.860Z,4.28
2023-03-05T18:01:05.626Z,3.65
2023-03-05T18:03:32.230Z,4.55
2023-03-05T18:08:25.360Z,4.47
2023-03-05T18:10:52.017Z,4.57
2023-03-05T18:13:18.518Z,4.90
2023-03-05T18:15:47.895Z,5.45
2023-03-05T18:18:18.174Z,4.78
2023-03-05T18:20:45.821Z,5.00
2023-03-05T18:23:13.027Z,4.90
2023-03-05T18:25:40.207Z,4.90
2023-03-05T18:28:12.222Z,4.93
2023-03-05T18:30:42.856Z,4.72
2023-03-05T18:33:23.982Z,4.57
2023-03-05T18:35:52.414Z,5.97
2023-03-05T18:38:21.520Z,4.75
2023-03-05T18:40:51.183Z,4.53
2023-03-05T18:43:20.620Z,4.35
2023-03-05T18:45:54.776Z,4.22
2023-03-05T18:48:21.976Z,5.00
2023-03-05T18:50:53.913Z,4.57
2023-03-05T18:53:22.090Z,4.32
2023-03-05T18:55:51.238Z,5.65
2023-03-05T18:58:18.309Z,6.07
2023-03-05T19:00:46.992Z,5.82
2023-03-05T19:03:23.264Z,4.95
2023-03-05T19:05:51.219Z,4.55
2023-03-05T19:08:18.102Z,5.13
2023-03-05T19:10:44.673Z,5.25
2023-03-05T19:13:33.678Z,5.82
2023-03-05T19:16:02.385Z,4.95
2023-03-05T19:18:48.149Z,4.80
2023-03-05T19:21:14.707Z,6.63
2023-03-05T19:23:41.385Z,7.00
2023-03-05T19:26:08.318Z,6.60
2023-03-05T19:28:34.797Z,5.20
2023-03-05T19:31:01.471Z,6.68
2023-03-05T19:33:28.141Z,5.30
2023-03-05T19:35:54.842Z,5.55
2023-03-05T19:38:21.473Z,6.97
2023-03-05T19:40:48.298Z,6.03
2023-03-05T19:43:17.603Z,5.55
2023-03-05T19:45:44.354Z,7.10
2023-03-05T19:48:10.984Z,5.15
2023-03-05T19:50:40.761Z,4.90
2023-03-05T19:53:07.382Z,4.32
2023-03-05T19:55:33.998Z,5.05
2023-03-05T19:58:00.560Z,5.05
2023-03-05T20:00:30.202Z,5.00
2023-03-05T20:02:58.284Z,5.07
2023-03-05T20:05:25.651Z,4.65
2023-03-05T20:07:53.351Z,5.65
2023-03-05T20:10:20.382Z,5.30
2023-03-05T20:12:48.264Z,5.53
2023-03-05T20:15:14.878Z,5.22
2023-03-05T20:17:45.676Z,5.70
2023-03-05T20:20:17.576Z,5.15
2023-03-05T20:22:45.909Z,4.75
2023-03-05T20:25:21.145Z,5.38
2023-03-05T20:27:48.036Z,5.10
2023-03-05T20:30:15.952Z,5.90
2023-03-05T20:32:44.613Z,8.15
2023-03-05T20:35:16.620Z,5.22
2023-03-05T20:38:31.510Z,5.25
2023-03-05T20:41:01.090Z,5.40
2023-03-05T20:43:30.664Z,4.80
2023-03-05T20:48:26.603Z,5.50
2023-03-05T20:50:53.725Z,5.78
2023-03-05T20:53:20.800Z,5.72
2023-03-05T20:55:47.785Z,5.63
2023-03-05T20:58:14.508Z,5.47
2023-03-05T21:00:41.240Z,5.40
2023-03-05T21:03:09.624Z,6.18
2023-03-05T21:05:37.006Z,6.05
2023-03-05T21:10:38.174Z,6.03
2023-03-05T21:13:04.619Z,6.10
2023-03-05T21:15:31.936Z,5.00
2023-03-05T21:17:58.917Z,4.82
2023-03-05T21:20:29.874Z,5.13
2023-03-05T21:22:57.439Z,5.30
2023-03-05T21:25:27.500Z,4.95
2023-03-05T21:28:06.280Z,5.85
2023-03-05T21:30:36.094Z,4.85
2023-03-05T21:33:05.184Z,6.40
2023-03-05T21:35:32.734Z,5.38
2023-03-05T21:38:00.311Z,4.80
2023-03-05T21:40:27.773Z,5.20
2023-03-05T21:42:54.700Z,5.45
2023-03-05T21:45:24.009Z,5.20
2023-03-05T21:47:52.591Z,5.32
2023-03-05T21:50:20.749Z,5.50
2023-03-05T21:52:50.373Z,5.00
2023-03-05T21:55:20.038Z,5.25
2023-03-05T21:57:46.646Z,5.25
2023-03-05T22:00:14.243Z,5.35
2023-03-05T22:02:41.441Z,5.40
2023-03-05T22:05:12.765Z,5.70
2023-03-05T22:07:39.922Z,5.13
2023-03-05T22:10:07.581Z,5.43
2023-03-05T22:13:05.556Z,5.25
2023-03-05T22:15:33.265Z,6.00
2023-03-05T22:18:00.768Z,5.93
2023-03-05T22:20:27.298Z,6.40
2023-03-05T22:22:53.750Z,7.05
2023-03-05T22:25:20.292Z,7.30
2023-03-05T22:27:46.853Z,6.95
2023-03-05T22:30:13.787Z,5.95
2023-03-05T22:32:40.260Z,6.05
2023-03-05T22:35:11.021Z,6.57
2023-03-05T22:37:37.475Z,5.43
2023-03-05T22:40:04.345Z,5.93
2023-03-05T22:42:30.840Z,7.40
2023-03-05T22:44:58.452Z,6.13
2023-03-05T22:47:25.888Z,5.80
2023-03-05T22:49:52.732Z,5.93
2023-03-05T22:52:20.274Z,6.40
2023-03-05T22:54:46.810Z,5.63
2023-03-05T22:57:13.323Z,6.28
2023-03-05T22:59:39.711Z,5.90
2023-03-05T23:02:06.258Z,5.80
2023-03-05T23:04:49.454Z,11.80
2023-03-05T23:07:18.107Z,6.03
2023-03-05T23:09:45.373Z,6.78
2023-03-05T23:12:12.323Z,6.57
2023-03-05T23:14:38.815Z,6.75
2023-03-05T23:17:05.295Z,7.10
2023-03-05T23:19:32.552Z,6.80
2023-03-05T23:24:31.864Z,6.80
2023-03-05T23:32:30.217Z,6.03
2023-03-05T23:37:23.752Z,5.13
2023-03-05T23:39:50.416Z,6.53
2023-03-05T23:42:16.836Z,6.55
2023-03-05T23:44:43.380Z,6.25
2023-03-05T23:47:09.978Z,6.18
2023-03-05T23:49:36.522Z,5.85
2023-03-05T23:52:03.246Z,6.53
2023-03-05T23:54:29.765Z,6.13
2023-03-05T23:56:56.277Z,6.70
2023-03-05T23:59:22.752Z,5.97
